首页
METAR-TAF:

METAR-TAF

机场 :

Oberpfaffenhofen, 德国

纬度: 48-05N, 经度: 011-17E, 海拔: 600米

当前天气观测

该预报发布于43分钟前的21:50 UTC
风速3节,风向东转东南
温度 20°C
湿度 83%
气压 1019 hPa
能见度10公里或以上

METAR: EDMO 112150Z AUTO 11003KT 9999 // NCD 20/17 Q1019

时间: 00:33 (22:33 UTC)

预报

该预报发布于5小时和33分钟前的17:00 UTC
预报有效从11日的 18点(UTC)到 12日的 03点(UTC)
风速3节,风向多变
能见度10公里或以上
1500米以下无云,无积雨云
几率 30% :
短暂存在
从 11日的 23点(UTC)到 12日的 03点(UTC)
能見度: 1500
碎片雾

TAF: EDMO 111700Z 1118/1203 VRB03KT CAVOK PROB30 TEMPO 1123/1203 1500 BCFG

超过4000个机场的气象观测和天气预报(METAR&TAF报告)。

可查询的气象台以黄色和红色小点在地图上表示。

将鼠标移到小点上方,可查看气象台名称。

然后点击查看天气观测和预报。

如需切换地图:点击带黑十字的绿色按钮放大地图;点击带横线的绿色按钮缩小地图;或者点击绿色箭头查看邻近地区的地图。


METAR-TAF: